createdAt,value
2022-09-10T00:01:38.014Z,56.27
2022-09-10T00:04:12.654Z,56.28
2022-09-10T00:06:41.219Z,56.23
2022-09-10T00:09:11.064Z,56.32
2022-09-10T00:11:41.198Z,56.08
2022-09-10T00:14:15.203Z,56.24
2022-09-10T00:16:43.101Z,56.48
2022-09-10T00:19:11.039Z,56.60
2022-09-10T00:21:38.856Z,56.43
2022-09-10T00:24:06.912Z,56.44
2022-09-10T00:26:39.395Z,56.47
2022-09-10T00:29:15.918Z,56.45
2022-09-10T00:31:44.954Z,56.60
2022-09-10T00:34:14.308Z,56.64
2022-09-10T00:36:44.058Z,56.72
2022-09-10T00:39:16.803Z,56.84
2022-09-10T00:41:48.239Z,57.12
2022-09-10T00:44:39.518Z,56.81
2022-09-10T00:47:38.356Z,56.99
2022-09-10T00:50:22.238Z,57.05
2022-09-10T00:52:56.255Z,57.21
2022-09-10T00:55:24.218Z,57.21
2022-09-10T00:57:58.786Z,57.26
2022-09-10T01:00:26.884Z,57.23
2022-09-10T01:02:55.547Z,57.14
2022-09-10T01:05:24.281Z,57.17
2022-09-10T01:07:53.139Z,57.35
2022-09-10T01:10:34.875Z,57.04
2022-09-10T01:13:39.923Z,57.02
2022-09-10T01:16:48.497Z,57.13
2022-09-10T01:19:56.261Z,57.45
2022-09-10T01:23:06.421Z,57.64
2022-09-10T01:26:31.706Z,57.39
2022-09-10T01:29:30.097Z,57.76
2022-09-10T01:32:27.411Z,57.62
2022-09-10T01:35:37.034Z,57.85
2022-09-10T01:38:15.421Z,57.79
2022-09-10T01:40:44.220Z,58.00
2022-09-10T01:43:16.488Z,57.93
2022-09-10T01:46:21.735Z,57.81
2022-09-10T01:49:29.189Z,57.69
2022-09-10T01:52:22.256Z,57.66
2022-09-10T01:55:06.137Z,57.69
2022-09-10T01:57:57.618Z,57.84
2022-09-10T02:00:34.675Z,57.98
2022-09-10T02:03:11.397Z,58.11
2022-09-10T02:05:42.192Z,58.22
2022-09-10T02:08:28.449Z,58.05
2022-09-10T02:11:06.354Z,58.15
2022-09-10T02:13:38.256Z,58.46
2022-09-10T02:16:34.404Z,58.36
2022-09-10T02:19:04.055Z,58.90
2022-09-10T02:21:33.529Z,58.71
2022-09-10T02:24:10.065Z,58.78
2022-09-10T02:26:42.156Z,58.73
2022-09-10T02:29:13.849Z,58.94
2022-09-10T02:31:43.924Z,58.96
2022-09-10T02:34:16.101Z,58.88
2022-09-10T02:36:47.142Z,58.50
2022-09-10T02:39:15.859Z,58.99
2022-09-10T02:41:43.675Z,58.58
2022-09-10T02:44:11.477Z,58.92
2022-09-10T02:46:39.452Z,58.65
2022-09-10T02:49:07.347Z,58.77
2022-09-10T02:51:38.914Z,58.94
2022-09-10T02:54:08.492Z,58.81
2022-09-10T02:56:36.531Z,58.89
2022-09-10T02:59:05.172Z,58.79
2022-09-10T03:01:34.869Z,58.82
2022-09-10T03:04:05.867Z,58.89
2022-09-10T03:06:33.734Z,59.09
2022-09-10T03:09:02.221Z,59.05
2022-09-10T03:11:31.301Z,59.13
2022-09-10T03:13:59.783Z,59.25
2022-09-10T03:16:29.784Z,59.35
2022-09-10T03:18:57.673Z,59.15
2022-09-10T03:21:25.453Z,59.26
2022-09-10T03:23:56.806Z,59.07
2022-09-10T03:26:28.007Z,59.10
2022-09-10T03:28:56.259Z,58.95
2022-09-10T03:31:31.057Z,59.04
2022-09-10T03:33:59.734Z,58.90
2022-09-10T03:36:32.113Z,59.02
2022-09-10T03:39:00.817Z,58.96
2022-09-10T03:41:32.044Z,58.87
2022-09-10T03:44:00.691Z,59.00
2022-09-10T03:46:28.525Z,59.06
2022-09-10T03:49:02.456Z,59.04
2022-09-10T03:51:31.471Z,59.07
2022-09-10T03:53:59.825Z,58.76
2022-09-10T03:56:28.543Z,58.85
2022-09-10T03:58:57.428Z,58.71
2022-09-10T04:01:27.989Z,58.79
2022-09-10T04:03:57.043Z,58.93
2022-09-10T04:06:26.797Z,58.79
2022-09-10T04:08:56.195Z,58.57
2022-09-10T04:11:27.636Z,58.65
2022-09-10T04:13:57.137Z,58.52
2022-09-10T04:16:25.846Z,58.42
2022-09-10T04:18:54.327Z,58.58
2022-09-10T04:21:23.267Z,58.70
2022-09-10T04:23:56.577Z,58.60
2022-09-10T04:26:26.341Z,58.70
2022-09-10T04:28:54.204Z,58.66
2022-09-10T04:31:22.620Z,58.68
2022-09-10T04:33:53.715Z,58.94
2022-09-10T04:36:25.788Z,58.88
2022-09-10T04:38:59.085Z,58.88
2022-09-10T04:41:27.347Z,58.79
2022-09-10T04:43:55.341Z,58.93
2022-09-10T04:46:24.372Z,59.03
2022-09-10T04:48:54.297Z,58.71
2022-09-10T04:51:25.014Z,58.77
2022-09-10T04:53:55.086Z,58.62
2022-09-10T04:56:27.723Z,58.48
2022-09-10T04:58:55.748Z,58.32
2022-09-10T05:01:31.349Z,58.24
2022-09-10T05:03:59.103Z,58.23
2022-09-10T05:06:27.021Z,58.48
2022-09-10T05:08:55.875Z,58.29
2022-09-10T05:11:23.827Z,58.66
2022-09-10T05:13:52.333Z,58.71
2022-09-10T05:16:23.308Z,58.64
2022-09-10T05:18:51.072Z,58.87
2022-09-10T05:21:19.806Z,58.83
2022-09-10T05:23:48.079Z,58.80
2022-09-10T05:26:15.942Z,59.11
2022-09-10T05:28:43.727Z,58.89
2022-09-10T05:31:16.631Z,58.81
2022-09-10T05:33:46.418Z,58.71
2022-09-10T05:36:14.868Z,58.94
2022-09-10T05:38:46.551Z,58.77
2022-09-10T05:41:16.257Z,58.97
2022-09-10T05:43:48.583Z,58.61
2022-09-10T05:46:17.154Z,58.63
2022-09-10T05:48:49.116Z,58.37
2022-09-10T05:51:18.694Z,58.26
2022-09-10T05:53:47.861Z,58.15
2022-09-10T05:56:15.852Z,58.19
2022-09-10T05:58:45.293Z,58.23
2022-09-10T06:01:15.468Z,58.28
2022-09-10T06:03:44.671Z,58.07
2022-09-10T06:06:12.522Z,57.98
2022-09-10T06:08:44.592Z,57.88
2022-09-10T06:11:23.223Z,58.08
2022-09-10T06:13:51.350Z,58.09
2022-09-10T06:16:20.324Z,58.09
2022-09-10T06:18:49.380Z,58.30
2022-09-10T06:21:26.154Z,58.17
2022-09-10T06:23:56.201Z,57.99
2022-09-10T06:26:26.729Z,57.78
2022-09-10T06:28:58.875Z,57.85
2022-09-10T06:31:27.221Z,57.95
2022-09-10T06:33:55.783Z,57.93
2022-09-10T06:36:28.711Z,57.81
2022-09-10T06:38:58.166Z,57.87
2022-09-10T06:41:27.077Z,57.89
2022-09-10T06:44:12.717Z,57.76
2022-09-10T06:49:40.674Z,57.96
2022-09-10T06:52:12.281Z,58.01
2022-09-10T06:54:40.323Z,57.72
2022-09-10T06:57:34.006Z,57.41
2022-09-10T07:00:04.739Z,57.22
2022-09-10T07:02:32.719Z,57.52
2022-09-10T07:05:00.884Z,57.69
2022-09-10T07:07:32.464Z,58.00
2022-09-10T07:10:01.437Z,58.01
2022-09-10T07:12:29.871Z,57.95
2022-09-10T07:14:57.630Z,57.97
2022-09-10T07:17:31.151Z,58.00
2022-09-10T07:20:00.838Z,57.85
2022-09-10T07:22:39.345Z,57.65
2022-09-10T07:25:10.555Z,57.06
2022-09-10T07:27:53.889Z,56.89
2022-09-10T07:30:22.404Z,56.81
2022-09-10T07:32:51.627Z,57.33
2022-09-10T07:35:23.985Z,57.04
2022-09-10T07:37:51.825Z,56.66
2022-09-10T07:40:23.456Z,56.28
2022-09-10T07:42:52.526Z,56.06
2022-09-10T07:45:21.387Z,56.19
2022-09-10T07:47:50.007Z,56.04
2022-09-10T07:50:19.304Z,56.24
2022-09-10T07:52:51.346Z,56.02
2022-09-10T07:55:21.293Z,56.05
2022-09-10T07:57:49.389Z,56.01
2022-09-10T08:00:18.510Z,55.96
2022-09-10T08:02:54.083Z,55.87
2022-09-10T08:05:23.659Z,55.95
2022-09-10T08:07:57.189Z,55.41
2022-09-10T08:10:27.592Z,55.41
2022-09-10T08:12:58.885Z,54.85
2022-09-10T08:15:26.940Z,55.09
2022-09-10T08:17:55.743Z,54.57
2022-09-10T08:20:25.207Z,54.81
2022-09-10T08:22:53.805Z,54.41
2022-09-10T08:25:21.722Z,54.19
2022-09-10T08:27:49.979Z,53.66
2022-09-10T08:30:17.810Z,53.88
2022-09-10T08:32:46.195Z,54.10
2022-09-10T08:35:14.977Z,53.55
2022-09-10T08:37:43.752Z,52.95
2022-09-10T08:40:13.434Z,52.84
2022-09-10T08:42:50.270Z,52.95
2022-09-10T08:45:33.785Z,52.95
2022-09-10T08:48:19.244Z,52.49
2022-09-10T08:51:01.796Z,52.25
2022-09-10T08:53:51.450Z,51.33
2022-09-10T08:56:27.881Z,51.44
2022-09-10T08:59:06.931Z,51.30
2022-09-10T09:01:53.259Z,50.93
2022-09-10T09:05:10.010Z,50.57
2022-09-10T09:07:39.772Z,50.45
2022-09-10T09:10:24.965Z,51.10
2022-09-10T09:13:18.311Z,51.20
2022-09-10T09:16:06.534Z,50.23
2022-09-10T09:19:38.215Z,49.73
2022-09-10T09:22:31.505Z,50.58
2022-09-10T09:25:10.007Z,50.10
2022-09-10T09:27:41.679Z,49.66
2022-09-10T09:30:35.736Z,48.88
2022-09-10T09:33:23.138Z,49.91
2022-09-10T09:36:04.740Z,49.60
2022-09-10T09:38:44.031Z,49.80
2022-09-10T09:41:36.503Z,49.71
2022-09-10T09:44:29.823Z,50.08
2022-09-10T09:46:57.775Z,49.81
2022-09-10T09:49:26.213Z,50.16
2022-09-10T09:51:57.674Z,50.57
2022-09-10T09:57:20.652Z,51.32
2022-09-10T09:59:51.776Z,51.86
2022-09-10T10:02:21.971Z,51.87
2022-09-10T10:05:24.683Z,51.87
2022-09-10T10:07:52.775Z,52.10
2022-09-10T10:10:25.703Z,51.71
2022-09-10T10:12:54.601Z,51.70
2022-09-10T10:15:41.072Z,50.95
2022-09-10T10:18:38.244Z,51.10
2022-09-10T10:21:34.048Z,49.70
2022-09-10T10:24:02.026Z,50.14
2022-09-10T10:26:37.106Z,49.87
2022-09-10T10:29:19.622Z,49.47
2022-09-10T10:31:50.086Z,49.92
2022-09-10T10:34:53.211Z,49.97
2022-09-10T10:38:03.354Z,50.26
2022-09-10T10:40:43.457Z,50.45
2022-09-10T10:43:20.035Z,50.10
2022-09-10T10:46:20.816Z,50.39
2022-09-10T10:49:27.836Z,49.66
2022-09-10T10:52:41.854Z,48.65
2022-09-10T10:55:20.893Z,48.80
2022-09-10T10:58:39.335Z,48.42
2022-09-10T11:01:24.702Z,46.30
2022-09-10T11:04:30.993Z,45.92
2022-09-10T11:07:34.834Z,46.35
2022-09-10T11:10:36.948Z,44.83
2022-09-10T11:13:22.241Z,44.37
2022-09-10T11:16:24.110Z,45.29
2022-09-10T11:19:01.410Z,44.76
2022-09-10T11:21:42.673Z,44.75
2022-09-10T11:24:23.309Z,44.75
2022-09-10T11:27:29.863Z,44.86
2022-09-10T11:30:06.994Z,45.03
2022-09-10T11:32:55.422Z,44.58
2022-09-10T11:35:41.146Z,45.21
2022-09-10T11:38:24.771Z,44.85
2022-09-10T11:40:58.803Z,45.34
2022-09-10T11:43:45.502Z,44.70
2022-09-10T11:46:32.328Z,44.09
2022-09-10T11:49:23.029Z,44.41
2022-09-10T11:51:51.399Z,44.79
2022-09-10T11:54:34.535Z,44.69
2022-09-10T11:57:09.859Z,44.33
2022-09-10T12:00:17.508Z,43.36
2022-09-10T12:03:24.295Z,44.27
2022-09-10T12:06:08.522Z,44.18
2022-09-10T12:09:06.078Z,43.25
2022-09-10T12:12:07.517Z,43.79
2022-09-10T12:14:41.025Z,43.50
2022-09-10T12:17:24.548Z,43.58
2022-09-10T12:19:55.875Z,43.38
2022-09-10T12:22:34.214Z,43.57
2022-09-10T12:25:08.770Z,43.39
2022-09-10T12:28:00.205Z,43.54
2022-09-10T12:30:28.532Z,43.51
2022-09-10T12:33:12.748Z,42.94
2022-09-10T12:35:49.757Z,43.69
2022-09-10T12:39:20.510Z,42.79
2022-09-10T12:41:48.729Z,43.09
2022-09-10T12:44:34.780Z,42.82
2022-09-10T12:47:17.238Z,42.75
2022-09-10T12:50:06.936Z,42.82
2022-09-10T12:53:09.592Z,42.70
2022-09-10T12:55:59.684Z,42.51
2022-09-10T12:59:15.862Z,43.26
2022-09-10T13:01:47.845Z,43.10
2022-09-10T13:04:33.454Z,43.54
2022-09-10T13:07:37.069Z,43.02
2022-09-10T13:10:26.320Z,43.31
2022-09-10T13:13:00.343Z,43.13
2022-09-10T13:15:37.799Z,42.94
2022-09-10T13:18:34.498Z,42.88
2022-09-10T13:21:31.466Z,43.15
2022-09-10T13:23:59.320Z,43.59
2022-09-10T13:26:31.153Z,43.61
2022-09-10T13:29:03.632Z,43.48
2022-09-10T13:31:36.469Z,44.17
2022-09-10T13:34:29.428Z,44.16
2022-09-10T13:37:31.705Z,44.42
2022-09-10T13:41:04.770Z,46.36
2022-09-10T13:44:06.936Z,49.15
2022-09-10T13:46:47.385Z,49.61
2022-09-10T13:49:41.197Z,48.60
2022-09-10T13:52:16.285Z,48.84
2022-09-10T13:54:51.618Z,49.00
2022-09-10T13:57:42.585Z,47.88
2022-09-10T14:00:23.957Z,46.75
2022-09-10T14:02:58.685Z,46.07
2022-09-10T14:05:48.841Z,45.87
2022-09-10T14:08:22.020Z,45.21
2022-09-10T14:11:01.622Z,44.90
2022-09-10T14:14:16.787Z,44.52
2022-09-10T14:16:49.196Z,44.79
2022-09-10T14:19:27.640Z,46.56
2022-09-10T14:21:57.791Z,47.17
2022-09-10T14:24:37.621Z,51.40
2022-09-10T14:27:32.442Z,51.01
2022-09-10T14:30:20.924Z,52.20
2022-09-10T14:32:49.384Z,52.54
2022-09-10T14:35:38.249Z,52.67
2022-09-10T14:38:24.640Z,52.27
2022-09-10T14:41:08.057Z,50.63
2022-09-10T14:43:39.156Z,49.95
2022-09-10T14:46:10.176Z,49.56
2022-09-10T14:49:01.493Z,49.70
2022-09-10T14:51:29.262Z,49.67
2022-09-10T14:53:58.900Z,49.04
2022-09-10T14:56:38.062Z,49.83
2022-09-10T14:59:32.234Z,50.49
2022-09-10T15:02:01.604Z,50.87
2022-09-10T15:04:30.400Z,51.10
2022-09-10T15:07:00.549Z,52.91
2022-09-10T15:09:29.844Z,53.69
2022-09-10T15:12:20.026Z,53.71
2022-09-10T15:14:47.788Z,55.01
2022-09-10T15:17:17.747Z,55.97
2022-09-10T15:19:49.954Z,58.16
2022-09-10T15:22:24.781Z,59.03
2022-09-10T15:25:10.772Z,60.43
2022-09-10T15:27:39.368Z,60.51
2022-09-10T15:30:07.911Z,60.48
2022-09-10T15:32:35.709Z,60.58
2022-09-10T15:35:04.377Z,60.67
2022-09-10T15:37:32.268Z,60.47
2022-09-10T15:40:00.109Z,60.89
2022-09-10T15:42:27.916Z,60.86
2022-09-10T15:44:55.648Z,60.40
2022-09-10T15:47:24.183Z,59.13
2022-09-10T15:49:52.822Z,58.75
2022-09-10T15:52:20.544Z,58.88
2022-09-10T15:54:48.312Z,57.83
2022-09-10T15:57:16.056Z,57.72
2022-09-10T15:59:43.806Z,57.83
2022-09-10T16:02:14.564Z,56.97
2022-09-10T16:04:43.165Z,57.05
2022-09-10T16:07:11.183Z,57.23
2022-09-10T16:09:38.887Z,56.56
2022-09-10T16:12:06.894Z,56.40
2022-09-10T16:14:34.857Z,56.58
2022-09-10T16:17:10.280Z,56.56
2022-09-10T16:19:38.289Z,56.13
2022-09-10T16:22:06.554Z,55.91
2022-09-10T16:24:34.344Z,56.56
2022-09-10T16:27:03.456Z,56.62
2022-09-10T16:29:32.639Z,56.56
2022-09-10T16:32:00.387Z,57.20
2022-09-10T16:34:28.196Z,56.62
2022-09-10T16:36:55.998Z,56.17
2022-09-10T16:39:23.786Z,56.47
2022-09-10T16:41:51.548Z,56.29
2022-09-10T16:44:19.391Z,56.36
2022-09-10T16:46:47.622Z,56.67
2022-09-10T16:49:18.452Z,56.57
2022-09-10T16:51:49.076Z,56.61
2022-09-10T16:54:20.029Z,56.92
2022-09-10T16:56:49.233Z,56.81
2022-09-10T16:59:21.406Z,56.66
2022-09-10T17:01:51.789Z,56.78
2022-09-10T17:04:28.231Z,56.95
2022-09-10T17:06:57.938Z,56.48
2022-09-10T17:09:25.982Z,56.76
2022-09-10T17:11:54.248Z,56.60
2022-09-10T17:14:22.288Z,56.83
2022-09-10T17:16:50.118Z,56.79
2022-09-10T17:19:23.690Z,56.96
2022-09-10T17:21:55.645Z,56.83
2022-09-10T17:24:26.215Z,56.94
2022-09-10T17:26:57.747Z,57.21
2022-09-10T17:29:26.310Z,57.17
2022-09-10T17:31:57.499Z,56.60
2022-09-10T17:34:26.581Z,56.79
2022-09-10T17:36:54.506Z,56.71
2022-09-10T17:39:22.251Z,56.94
2022-09-10T17:41:50.226Z,56.49
2022-09-10T17:44:18.150Z,56.53
2022-09-10T17:46:46.458Z,56.85
2022-09-10T17:49:16.708Z,56.28
2022-09-10T17:51:44.791Z,56.42
2022-09-10T17:54:13.443Z,56.67
2022-09-10T17:56:41.941Z,56.74
2022-09-10T17:59:14.365Z,56.98
2022-09-10T18:01:43.117Z,56.87
2022-09-10T18:04:15.744Z,56.70
2022-09-10T18:06:46.811Z,57.02
2022-09-10T18:09:17.446Z,56.70
2022-09-10T18:11:45.356Z,57.11
2022-09-10T18:14:19.485Z,56.95
2022-09-10T18:16:47.343Z,56.64
2022-09-10T18:19:17.191Z,56.65
2022-09-10T18:21:46.850Z,56.22
2022-09-10T18:24:24.263Z,56.06
2022-09-10T18:26:54.665Z,55.84
2022-09-10T18:29:26.880Z,56.20
2022-09-10T18:31:57.558Z,56.00
2022-09-10T18:34:28.764Z,55.63
2022-09-10T18:37:00.276Z,55.86
2022-09-10T18:39:31.387Z,55.66
2022-09-10T18:42:03.516Z,55.60
2022-09-10T18:44:34.190Z,55.50
2022-09-10T18:47:02.470Z,55.23
2022-09-10T18:49:30.267Z,55.52
2022-09-10T18:51:58.141Z,55.42
2022-09-10T18:54:29.742Z,55.52
2022-09-10T18:56:58.237Z,55.73
2022-09-10T18:59:26.733Z,55.70
2022-09-10T19:01:56.017Z,55.63
2022-09-10T19:04:28.268Z,55.69
2022-09-10T19:06:57.727Z,55.71
2022-09-10T19:09:29.269Z,55.67
2022-09-10T19:12:00.330Z,55.57
2022-09-10T19:14:31.474Z,55.71
2022-09-10T19:17:00.822Z,55.56
2022-09-10T19:19:32.021Z,55.66
2022-09-10T19:22:03.602Z,55.59
2022-09-10T19:24:53.325Z,55.58
2022-09-10T19:27:20.597Z,55.36
2022-09-10T19:29:49.854Z,55.26
2022-09-10T19:32:19.921Z,55.59
2022-09-10T19:34:51.981Z,55.56
2022-09-10T19:37:20.913Z,55.44
2022-09-10T19:39:49.099Z,55.50
2022-09-10T19:42:17.391Z,55.63
2022-09-10T19:44:45.178Z,55.47
2022-09-10T19:47:12.927Z,55.55
2022-09-10T19:49:40.841Z,55.47
2022-09-10T19:52:11.130Z,55.69
2022-09-10T19:54:38.992Z,55.35
2022-09-10T19:57:07.520Z,55.51
2022-09-10T19:59:35.659Z,55.55
2022-09-10T20:02:03.689Z,55.70
2022-09-10T20:04:33.059Z,55.68
2022-09-10T20:07:01.408Z,55.57
2022-09-10T20:09:29.147Z,55.59
2022-09-10T20:11:56.898Z,55.51
2022-09-10T20:14:25.458Z,55.53
2022-09-10T20:16:53.438Z,55.57
2022-09-10T20:19:22.116Z,55.35
2022-09-10T20:21:50.218Z,55.35
2022-09-10T20:24:17.930Z,55.28
2022-09-10T20:26:46.722Z,55.20
2022-09-10T20:29:19.352Z,55.06
2022-09-10T20:31:48.522Z,55.25
2022-09-10T20:34:20.627Z,55.21
2022-09-10T20:36:53.621Z,55.26
2022-09-10T20:39:25.318Z,55.21
2022-09-10T20:41:53.592Z,55.17
2022-09-10T20:44:21.378Z,55.05
2022-09-10T20:46:49.163Z,55.16
2022-09-10T20:49:17.444Z,55.14
2022-09-10T20:51:45.697Z,55.05
2022-09-10T20:54:18.849Z,54.94
2022-09-10T20:56:46.891Z,55.26
2022-09-10T20:59:16.977Z,55.25
2022-09-10T21:01:46.997Z,55.32
2022-09-10T21:04:15.237Z,55.44
2022-09-10T21:06:43.408Z,55.48
2022-09-10T21:09:12.565Z,55.54
2022-09-10T21:11:40.575Z,55.77
2022-09-10T21:14:09.414Z,55.34
2022-09-10T21:16:40.153Z,55.50
2022-09-10T21:19:15.173Z,55.34
2022-09-10T21:21:48.896Z,55.40
2022-09-10T21:24:22.622Z,55.68
2022-09-10T21:26:50.482Z,55.20
2022-09-10T21:29:22.348Z,55.62
2022-09-10T21:31:54.843Z,55.90
2022-09-10T21:34:23.098Z,56.20
2022-09-10T21:36:51.432Z,56.03
2022-09-10T21:39:19.269Z,56.02
2022-09-10T21:41:50.493Z,56.65
2022-09-10T21:44:25.030Z,56.85
2022-09-10T21:46:53.411Z,56.97
2022-09-10T21:49:21.273Z,57.25
2022-09-10T21:51:49.179Z,57.40
2022-09-10T21:54:20.896Z,57.64
2022-09-10T21:56:50.443Z,57.13
2022-09-10T21:59:19.454Z,57.01
2022-09-10T22:01:47.997Z,57.13
2022-09-10T22:04:22.202Z,57.23
2022-09-10T22:06:50.662Z,57.15
2022-09-10T22:09:19.901Z,57.25
2022-09-10T22:11:51.867Z,57.84
2022-09-10T22:14:22.656Z,58.22
2022-09-10T22:16:52.094Z,58.21
2022-09-10T22:19:24.165Z,58.32
2022-09-10T22:21:54.340Z,58.21
2022-09-10T22:24:22.355Z,58.96
2022-09-10T22:26:50.398Z,58.87
2022-09-10T22:29:19.853Z,58.82
2022-09-10T22:31:48.551Z,58.94
2022-09-10T22:34:17.880Z,59.14
2022-09-10T22:36:47.567Z,59.65
2022-09-10T22:39:20.594Z,60.17
2022-09-10T22:41:51.171Z,59.66
2022-09-10T22:44:20.140Z,59.44
2022-09-10T22:46:48.279Z,59.29
2022-09-10T22:49:16.665Z,59.48
2022-09-10T22:51:44.792Z,59.11
2022-09-10T22:54:12.594Z,59.37
2022-09-10T22:56:42.062Z,59.81
2022-09-10T22:59:14.012Z,59.82
2022-09-10T23:01:46.024Z,59.47
2022-09-10T23:04:14.071Z,59.26
2022-09-10T23:06:42.100Z,59.27
2022-09-10T23:09:17.516Z,59.85
2022-09-10T23:11:45.817Z,60.17
2022-09-10T23:14:19.189Z,59.92
2022-09-10T23:16:49.577Z,60.07
2022-09-10T23:19:23.330Z,59.38
2022-09-10T23:21:54.305Z,59.78
2022-09-10T23:24:24.712Z,59.72
2022-09-10T23:26:53.904Z,59.52
2022-09-10T23:29:23.205Z,59.42
2022-09-10T23:31:54.624Z,59.57
2022-09-10T23:34:23.056Z,59.38
2022-09-10T23:36:52.068Z,60.03
2022-09-10T23:39:23.470Z,59.41
2022-09-10T23:41:55.379Z,59.53
2022-09-10T23:44:24.281Z,59.37
2022-09-10T23:46:53.597Z,59.58
2022-09-10T23:49:23.974Z,59.11
2022-09-10T23:51:52.178Z,59.13
2022-09-10T23:54:19.919Z,58.67
2022-09-10T23:56:47.678Z,58.65
2022-09-10T23:59:15.466Z,58.87
